Terminal Aerodrome Forecast
Issued by NWS Green Bay, WI

Home | Current Version | Previous Version | Graphics & Text | Print | Product List | Glossary On
Versions: 1 2 3 4 5 6 7 8 9 10 11 12 13 14 15 16 17 18 19 20 21 22 23 24 25 26 27 28 29 30 31 32 33 34 35 36 37 38 39 40 41 42 43 44
000
FTUS43 KGRB 050325 AAB
TAFGRB
TAF AMD
KGRB 050325Z 0503/0524 06005KT 5SM BR FEW015 SCT035
     FM050700 VRB03KT 3SM BR SCT005 BKN012
     FM050900 VRB03KT 3SM BR BKN005
      TEMPO 0510/0513 1/2SM FG BKN002
     FM051500 18005KT 6SM HZ BKN025
     FM051900 19007KT P6SM BKN035=

USA.gov is the U.S. government's official web portal to all federal, state and local government web resources and services.